sensor_id;sensor_type;location;lat;lon;timestamp;temperature;humidity
15105;DHT22;7653;48.994;9.212;2023-06-14T00:01:24;14.20;25.40
15105;DHT22;7653;48.994;9.212;2023-06-14T00:03:50;14.30;25.50
15105;DHT22;7653;48.994;9.212;2023-06-14T00:06:16;14.40;25.30
15105;DHT22;7653;48.994;9.212;2023-06-14T00:08:42;14.30;25.50
15105;DHT22;7653;48.994;9.212;2023-06-14T00:11:08;14.30;25.50
15105;DHT22;7653;48.994;9.212;2023-06-14T00:13:34;14.50;25.60
15105;DHT22;7653;48.994;9.212;2023-06-14T00:16:00;14.40;25.60
15105;DHT22;7653;48.994;9.212;2023-06-14T00:18:25;14.40;25.70
15105;DHT22;7653;48.994;9.212;2023-06-14T00:20:52;14.50;26.70
15105;DHT22;7653;48.994;9.212;2023-06-14T00:23:18;14.60;25.70
15105;DHT22;7653;48.994;9.212;2023-06-14T00:25:44;14.60;25.70
15105;DHT22;7653;48.994;9.212;2023-06-14T00:28:09;14.70;25.80
15105;DHT22;7653;48.994;9.212;2023-06-14T00:30:35;14.60;25.70
15105;DHT22;7653;48.994;9.212;2023-06-14T00:33:01;14.50;26.40
15105;DHT22;7653;48.994;9.212;2023-06-14T00:35:26;14.30;27.40
15105;DHT22;7653;48.994;9.212;2023-06-14T00:37:52;14.40;26.80
15105;DHT22;7653;48.994;9.212;2023-06-14T00:40:20;14.40;27.00
15105;DHT22;7653;48.994;9.212;2023-06-14T00:42:45;14.20;27.50
15105;DHT22;7653;48.994;9.212;2023-06-14T00:45:11;14.00;28.20
15105;DHT22;7653;48.994;9.212;2023-06-14T00:47:38;13.90;29.30
15105;DHT22;7653;48.994;9.212;2023-06-14T00:50:07;14.00;29.30
15105;DHT22;7653;48.994;9.212;2023-06-14T00:52:33;14.10;29.40
15105;DHT22;7653;48.994;9.212;2023-06-14T00:55:00;14.10;29.40
15105;DHT22;7653;48.994;9.212;2023-06-14T00:57:26;14.00;28.40
15105;DHT22;7653;48.994;9.212;2023-06-14T00:59:52;13.90;29.60
15105;DHT22;7653;48.994;9.212;2023-06-14T01:02:19;13.70;29.80
15105;DHT22;7653;48.994;9.212;2023-06-14T01:04:47;13.40;31.20
15105;DHT22;7653;48.994;9.212;2023-06-14T01:13:12;13.30;33.60
15105;DHT22;7653;48.994;9.212;2023-06-14T01:15:39;13.20;33.50
15105;DHT22;7653;48.994;9.212;2023-06-14T01:18:06;13.10;34.50
15105;DHT22;7653;48.994;9.212;2023-06-14T01:20:33;12.80;34.70
15105;DHT22;7653;48.994;9.212;2023-06-14T01:23:03;12.60;37.50
15105;DHT22;7653;48.994;9.212;2023-06-14T01:25:29;12.40;38.90
15105;DHT22;7653;48.994;9.212;2023-06-14T01:28:00;12.40;40.30
15105;DHT22;7653;48.994;9.212;2023-06-14T01:30:28;12.40;40.20
15105;DHT22;7653;48.994;9.212;2023-06-14T01:32:55;12.30;39.30
15105;DHT22;7653;48.994;9.212;2023-06-14T01:35:22;12.40;39.40
15105;DHT22;7653;48.994;9.212;2023-06-14T01:37:49;12.50;38.40
15105;DHT22;7653;48.994;9.212;2023-06-14T01:40:15;12.20;39.50
15105;DHT22;7653;48.994;9.212;2023-06-14T01:42:42;12.00;42.40
15105;DHT22;7653;48.994;9.212;2023-06-14T01:45:09;12.10;42.50
15105;DHT22;7653;48.994;9.212;2023-06-14T01:47:36;12.00;42.40
15105;DHT22;7653;48.994;9.212;2023-06-14T01:50:03;12.10;42.50
15105;DHT22;7653;48.994;9.212;2023-06-14T01:52:29;12.00;42.40
15105;DHT22;7653;48.994;9.212;2023-06-14T01:54:55;11.90;42.40
15105;DHT22;7653;48.994;9.212;2023-06-14T01:57:21;12.00;43.00
15105;DHT22;7653;48.994;9.212;2023-06-14T01:59:47;12.00;42.70
15105;DHT22;7653;48.994;9.212;2023-06-14T02:02:14;11.90;42.90
15105;DHT22;7653;48.994;9.212;2023-06-14T02:04:41;12.00;43.70
15105;DHT22;7653;48.994;9.212;2023-06-14T02:07:06;11.90;44.00
15105;DHT22;7653;48.994;9.212;2023-06-14T02:09:33;11.80;44.30
15105;DHT22;7653;48.994;9.212;2023-06-14T02:12:00;11.60;45.10
15105;DHT22;7653;48.994;9.212;2023-06-14T02:14:26;11.70;47.20
15105;DHT22;7653;48.994;9.212;2023-06-14T02:16:52;12.00;45.90
15105;DHT22;7653;48.994;9.212;2023-06-14T02:19:19;12.00;43.90
15105;DHT22;7653;48.994;9.212;2023-06-14T02:21:46;11.80;45.60
15105;DHT22;7653;48.994;9.212;2023-06-14T02:24:12;12.00;44.30
15105;DHT22;7653;48.994;9.212;2023-06-14T02:26:38;12.00;42.90
15105;DHT22;7653;48.994;9.212;2023-06-14T02:29:05;11.90;43.90
15105;DHT22;7653;48.994;9.212;2023-06-14T02:31:38;12.00;44.70
15105;DHT22;7653;48.994;9.212;2023-06-14T02:34:03;11.90;43.60
15105;DHT22;7653;48.994;9.212;2023-06-14T02:36:29;12.00;44.30
15105;DHT22;7653;48.994;9.212;2023-06-14T02:38:56;11.80;44.80
15105;DHT22;7653;48.994;9.212;2023-06-14T02:41:23;11.60;46.10
15105;DHT22;7653;48.994;9.212;2023-06-14T02:43:49;11.80;46.40
15105;DHT22;7653;48.994;9.212;2023-06-14T02:46:15;12.00;46.40
15105;DHT22;7653;48.994;9.212;2023-06-14T02:48:41;12.00;44.30
15105;DHT22;7653;48.994;9.212;2023-06-14T02:51:06;12.20;45.30
15105;DHT22;7653;48.994;9.212;2023-06-14T02:53:33;12.20;44.90
15105;DHT22;7653;48.994;9.212;2023-06-14T02:56:00;12.30;44.30
15105;DHT22;7653;48.994;9.212;2023-06-14T02:58:26;12.40;42.80
15105;DHT22;7653;48.994;9.212;2023-06-14T03:00:52;12.10;43.40
15105;DHT22;7653;48.994;9.212;2023-06-14T03:03:21;12.20;43.70
15105;DHT22;7653;48.994;9.212;2023-06-14T03:05:48;12.20;43.40
15105;DHT22;7653;48.994;9.212;2023-06-14T03:08:15;12.20;42.60
15105;DHT22;7653;48.994;9.212;2023-06-14T03:10:49;11.90;44.90
15105;DHT22;7653;48.994;9.212;2023-06-14T03:13:15;11.70;44.00
15105;DHT22;7653;48.994;9.212;2023-06-14T03:15:44;12.00;45.90
15105;DHT22;7653;48.994;9.212;2023-06-14T03:18:10;12.20;44.80
15105;DHT22;7653;48.994;9.212;2023-06-14T03:20:37;12.30;43.50
15105;DHT22;7653;48.994;9.212;2023-06-14T03:23:03;12.10;42.60
15105;DHT22;7653;48.994;9.212;2023-06-14T03:25:29;12.10;42.60
15105;DHT22;7653;48.994;9.212;2023-06-14T03:27:56;11.90;45.70
15105;DHT22;7653;48.994;9.212;2023-06-14T03:30:22;11.90;45.50
15105;DHT22;7653;48.994;9.212;2023-06-14T03:32:47;11.50;47.70
15105;DHT22;7653;48.994;9.212;2023-06-14T03:35:13;11.60;50.00
15105;DHT22;7653;48.994;9.212;2023-06-14T03:37:46;11.40;46.80
15105;DHT22;7653;48.994;9.212;2023-06-14T03:40:12;11.30;51.10
15105;DHT22;7653;48.994;9.212;2023-06-14T03:42:39;11.40;49.20
15105;DHT22;7653;48.994;9.212;2023-06-14T03:45:05;11.60;49.20
15105;DHT22;7653;48.994;9.212;2023-06-14T03:47:31;11.70;48.20
15105;DHT22;7653;48.994;9.212;2023-06-14T03:49:57;11.80;48.30
15105;DHT22;7653;48.994;9.212;2023-06-14T03:52:23;11.90;48.30
15105;DHT22;7653;48.994;9.212;2023-06-14T03:54:49;11.70;47.90
15105;DHT22;7653;48.994;9.212;2023-06-14T03:57:15;11.90;48.90
15105;DHT22;7653;48.994;9.212;2023-06-14T03:59:40;12.00;48.10
15105;DHT22;7653;48.994;9.212;2023-06-14T04:02:07;12.10;48.30
15105;DHT22;7653;48.994;9.212;2023-06-14T04:04:33;12.10;47.40
15105;DHT22;7653;48.994;9.212;2023-06-14T04:07:01;11.90;47.80
15105;DHT22;7653;48.994;9.212;2023-06-14T04:09:31;11.90;51.20
15105;DHT22;7653;48.994;9.212;2023-06-14T04:11:57;12.10;50.10
15105;DHT22;7653;48.994;9.212;2023-06-14T04:14:22;12.20;49.30
15105;DHT22;7653;48.994;9.212;2023-06-14T04:16:49;12.30;48.80
15105;DHT22;7653;48.994;9.212;2023-06-14T04:19:15;12.50;47.80
15105;DHT22;7653;48.994;9.212;2023-06-14T04:21:41;12.70;46.60
15105;DHT22;7653;48.994;9.212;2023-06-14T04:24:07;12.80;46.60
15105;DHT22;7653;48.994;9.212;2023-06-14T04:26:42;12.90;46.10
15105;DHT22;7653;48.994;9.212;2023-06-14T04:29:13;12.90;43.30
15105;DHT22;7653;48.994;9.212;2023-06-14T04:31:43;13.10;43.40
15105;DHT22;7653;48.994;9.212;2023-06-14T04:34:10;13.20;43.50
15105;DHT22;7653;48.994;9.212;2023-06-14T04:36:42;13.40;43.70
15105;DHT22;7653;48.994;9.212;2023-06-14T04:39:20;13.50;41.10
15105;DHT22;7653;48.994;9.212;2023-06-14T04:41:46;13.50;43.10
15105;DHT22;7653;48.994;9.212;2023-06-14T04:44:13;13.60;41.60
15105;DHT22;7653;48.994;9.212;2023-06-14T04:46:39;13.70;39.60
15105;DHT22;7653;48.994;9.212;2023-06-14T04:49:17;13.80;42.20
15105;DHT22;7653;48.994;9.212;2023-06-14T04:51:44;13.90;43.10
15105;DHT22;7653;48.994;9.212;2023-06-14T04:54:10;14.10;39.70
15105;DHT22;7653;48.994;9.212;2023-06-14T04:56:42;14.20;41.30
15105;DHT22;7653;48.994;9.212;2023-06-14T04:59:08;14.30;37.30
15105;DHT22;7653;48.994;9.212;2023-06-14T05:01:34;14.10;41.60
15105;DHT22;7653;48.994;9.212;2023-06-14T05:04:00;14.30;39.50
15105;DHT22;7653;48.994;9.212;2023-06-14T05:06:26;14.20;36.90
15105;DHT22;7653;48.994;9.212;2023-06-14T05:08:53;14.40;41.20
15105;DHT22;7653;48.994;9.212;2023-06-14T05:11:19;14.60;38.60
15105;DHT22;7653;48.994;9.212;2023-06-14T05:13:45;14.70;40.50
15105;DHT22;7653;48.994;9.212;2023-06-14T05:16:11;14.80;38.60
15105;DHT22;7653;48.994;9.212;2023-06-14T05:18:37;15.00;36.80
15105;DHT22;7653;48.994;9.212;2023-06-14T05:21:03;15.20;36.80
15105;DHT22;7653;48.994;9.212;2023-06-14T05:23:31;15.40;33.90
15105;DHT22;7653;48.994;9.212;2023-06-14T05:25:57;15.50;29.80
15105;DHT22;7653;48.994;9.212;2023-06-14T05:28:23;15.60;28.90
15105;DHT22;7653;48.994;9.212;2023-06-14T05:30:49;15.80;28.20
15105;DHT22;7653;48.994;9.212;2023-06-14T05:33:15;15.90;27.50
15105;DHT22;7653;48.994;9.212;2023-06-14T05:35:40;16.00;26.70
15105;DHT22;7653;48.994;9.212;2023-06-14T05:38:06;16.00;26.70
15105;DHT22;7653;48.994;9.212;2023-06-14T05:40:33;16.20;25.40
15105;DHT22;7653;48.994;9.212;2023-06-14T05:42:58;16.00;25.60
15105;DHT22;7653;48.994;9.212;2023-06-14T05:45:24;15.90;26.60
15105;DHT22;7653;48.994;9.212;2023-06-14T05:47:50;16.30;25.70
15105;DHT22;7653;48.994;9.212;2023-06-14T05:50:16;16.50;24.50
15105;DHT22;7653;48.994;9.212;2023-06-14T05:52:41;16.70;24.60
15105;DHT22;7653;48.994;9.212;2023-06-14T05:55:07;16.80;23.20
15105;DHT22;7653;48.994;9.212;2023-06-14T05:57:33;16.90;23.90
15105;DHT22;7653;48.994;9.212;2023-06-14T05:59:58;16.80;23.10
15105;DHT22;7653;48.994;9.212;2023-06-14T06:02:24;16.60;23.20
15105;DHT22;7653;48.994;9.212;2023-06-14T06:04:50;16.70;23.60
15105;DHT22;7653;48.994;9.212;2023-06-14T06:07:15;16.90;23.20
15105;DHT22;7653;48.994;9.212;2023-06-14T06:09:41;17.20;21.70
15105;DHT22;7653;48.994;9.212;2023-06-14T06:12:07;17.30;21.50
15105;DHT22;7653;48.994;9.212;2023-06-14T06:14:33;17.10;20.80
15105;DHT22;7653;48.994;9.212;2023-06-14T06:16:58;17.00;21.90
15105;DHT22;7653;48.994;9.212;2023-06-14T06:19:24;16.80;22.00
15105;DHT22;7653;48.994;9.212;2023-06-14T06:21:50;16.80;21.90
15105;DHT22;7653;48.994;9.212;2023-06-14T06:24:16;17.00;21.70
15105;DHT22;7653;48.994;9.212;2023-06-14T06:26:42;17.10;21.30
15105;DHT22;7653;48.994;9.212;2023-06-14T06:29:07;17.20;21.10
15105;DHT22;7653;48.994;9.212;2023-06-14T06:31:33;17.20;20.90
15105;DHT22;7653;48.994;9.212;2023-06-14T06:33:59;17.30;20.90
15105;DHT22;7653;48.994;9.212;2023-06-14T06:36:25;17.40;20.40
15105;DHT22;7653;48.994;9.212;2023-06-14T06:38:50;17.50;20.10
15105;DHT22;7653;48.994;9.212;2023-06-14T06:41:16;17.40;20.10
15105;DHT22;7653;48.994;9.212;2023-06-14T06:43:42;17.60;20.30
15105;DHT22;7653;48.994;9.212;2023-06-14T06:46:07;17.60;19.90
15105;DHT22;7653;48.994;9.212;2023-06-14T06:48:33;17.60;20.80
15105;DHT22;7653;48.994;9.212;2023-06-14T06:50:59;17.60;20.00
15105;DHT22;7653;48.994;9.212;2023-06-14T06:53:24;17.80;20.40
15105;DHT22;7653;48.994;9.212;2023-06-14T06:55:50;18.00;19.80
15105;DHT22;7653;48.994;9.212;2023-06-14T06:58:16;18.20;19.80
15105;DHT22;7653;48.994;9.212;2023-06-14T07:00:41;18.30;20.00
15105;DHT22;7653;48.994;9.212;2023-06-14T07:03:07;18.50;19.30
15105;DHT22;7653;48.994;9.212;2023-06-14T07:05:33;18.50;18.60
15105;DHT22;7653;48.994;9.212;2023-06-14T07:07:59;18.40;18.50
15105;DHT22;7653;48.994;9.212;2023-06-14T07:10:25;18.20;19.90
15105;DHT22;7653;48.994;9.212;2023-06-14T07:12:51;18.60;19.00
15105;DHT22;7653;48.994;9.212;2023-06-14T07:15:16;19.00;19.60
15105;DHT22;7653;48.994;9.212;2023-06-14T07:17:42;19.00;18.30
15105;DHT22;7653;48.994;9.212;2023-06-14T07:20:09;19.00;19.00
15105;DHT22;7653;48.994;9.212;2023-06-14T07:22:41;18.90;18.10
15105;DHT22;7653;48.994;9.212;2023-06-14T07:25:11;18.80;18.80
15105;DHT22;7653;48.994;9.212;2023-06-14T07:27:41;19.10;18.20
15105;DHT22;7653;48.994;9.212;2023-06-14T07:30:08;19.00;17.70
15105;DHT22;7653;48.994;9.212;2023-06-14T07:32:34;19.00;17.90
15105;DHT22;7653;48.994;9.212;2023-06-14T07:34:59;19.10;17.50
15105;DHT22;7653;48.994;9.212;2023-06-14T07:37:25;19.40;17.30
15105;DHT22;7653;48.994;9.212;2023-06-14T07:39:51;19.40;16.80
15105;DHT22;7653;48.994;9.212;2023-06-14T07:42:16;19.50;16.70
15105;DHT22;7653;48.994;9.212;2023-06-14T07:44:42;19.70;16.60
15105;DHT22;7653;48.994;9.212;2023-06-14T07:47:08;19.80;16.80
15105;DHT22;7653;48.994;9.212;2023-06-14T07:49:33;19.60;16.70
15105;DHT22;7653;48.994;9.212;2023-06-14T07:51:59;19.80;16.40
15105;DHT22;7653;48.994;9.212;2023-06-14T07:54:24;19.80;16.10
15105;DHT22;7653;48.994;9.212;2023-06-14T07:56:52;19.90;16.30
15105;DHT22;7653;48.994;9.212;2023-06-14T07:59:18;20.10;16.30
15105;DHT22;7653;48.994;9.212;2023-06-14T08:01:43;20.00;15.90
15105;DHT22;7653;48.994;9.212;2023-06-14T08:04:13;19.90;15.30
15105;DHT22;7653;48.994;9.212;2023-06-14T08:06:38;20.00;15.80
15105;DHT22;7653;48.994;9.212;2023-06-14T08:09:04;20.20;15.40
15105;DHT22;7653;48.994;9.212;2023-06-14T08:11:31;20.00;15.80
15105;DHT22;7653;48.994;9.212;2023-06-14T08:13:57;20.30;14.60
15105;DHT22;7653;48.994;9.212;2023-06-14T08:16:22;20.60;14.60
15105;DHT22;7653;48.994;9.212;2023-06-14T08:18:48;20.60;15.50
15105;DHT22;7653;48.994;9.212;2023-06-14T08:21:14;20.70;14.20
15105;DHT22;7653;48.994;9.212;2023-06-14T08:23:43;20.80;14.10
15105;DHT22;7653;48.994;9.212;2023-06-14T08:26:09;20.80;13.70
15105;DHT22;7653;48.994;9.212;2023-06-14T08:28:35;21.00;14.30
15105;DHT22;7653;48.994;9.212;2023-06-14T08:31:01;20.60;13.70
15105;DHT22;7653;48.994;9.212;2023-06-14T08:33:27;20.50;13.00
15105;DHT22;7653;48.994;9.212;2023-06-14T08:35:52;20.50;13.00
15105;DHT22;7653;48.994;9.212;2023-06-14T08:38:21;20.60;13.40
15105;DHT22;7653;48.994;9.212;2023-06-14T08:40:50;20.70;13.10
15105;DHT22;7653;48.994;9.212;2023-06-14T08:43:17;20.80;12.80
15105;DHT22;7653;48.994;9.212;2023-06-14T08:45:46;21.00;12.30
15105;DHT22;7653;48.994;9.212;2023-06-14T08:48:12;21.10;13.30
15105;DHT22;7653;48.994;9.212;2023-06-14T08:50:42;21.30;12.30
15105;DHT22;7653;48.994;9.212;2023-06-14T08:53:11;21.30;12.90
15105;DHT22;7653;48.994;9.212;2023-06-14T08:55:45;21.60;11.80
15105;DHT22;7653;48.994;9.212;2023-06-14T08:58:10;21.80;11.50
15105;DHT22;7653;48.994;9.212;2023-06-14T09:00:39;21.70;11.10
15105;DHT22;7653;48.994;9.212;2023-06-14T09:03:07;21.40;10.90
15105;DHT22;7653;48.994;9.212;2023-06-14T09:05:39;21.50;10.90
15105;DHT22;7653;48.994;9.212;2023-06-14T09:08:05;21.50;11.10
15105;DHT22;7653;48.994;9.212;2023-06-14T09:10:31;21.80;11.00
15105;DHT22;7653;48.994;9.212;2023-06-14T09:13:02;21.80;10.30
15105;DHT22;7653;48.994;9.212;2023-06-14T09:15:30;21.80;11.50
15105;DHT22;7653;48.994;9.212;2023-06-14T09:17:56;21.80;10.70
15105;DHT22;7653;48.994;9.212;2023-06-14T09:20:24;21.90;10.90
15105;DHT22;7653;48.994;9.212;2023-06-14T09:22:50;22.40;10.80
15105;DHT22;7653;48.994;9.212;2023-06-14T09:25:16;22.60;10.10
15105;DHT22;7653;48.994;9.212;2023-06-14T09:27:43;22.20;9.80
15105;DHT22;7653;48.994;9.212;2023-06-14T09:30:11;22.50;10.00
15105;DHT22;7653;48.994;9.212;2023-06-14T09:32:37;22.50;8.70
15105;DHT22;7653;48.994;9.212;2023-06-14T09:35:06;22.60;9.60
15105;DHT22;7653;48.994;9.212;2023-06-14T09:37:32;22.60;7.10
15105;DHT22;7653;48.994;9.212;2023-06-14T09:39:59;22.60;6.70
15105;DHT22;7653;48.994;9.212;2023-06-14T09:42:25;22.80;5.60
15105;DHT22;7653;48.994;9.212;2023-06-14T09:44:56;22.80;2.00
15105;DHT22;7653;48.994;9.212;2023-06-14T09:47:23;22.90;4.50
15105;DHT22;7653;48.994;9.212;2023-06-14T09:49:49;22.70;5.30
15105;DHT22;7653;48.994;9.212;2023-06-14T09:52:17;23.00;6.30
15105;DHT22;7653;48.994;9.212;2023-06-14T09:54:44;23.10;4.60
15105;DHT22;7653;48.994;9.212;2023-06-14T09:57:20;23.30;6.60
15105;DHT22;7653;48.994;9.212;2023-06-14T09:59:47;23.40;2.70
15105;DHT22;7653;48.994;9.212;2023-06-14T10:02:29;23.50;1.00
15105;DHT22;7653;48.994;9.212;2023-06-14T10:05:05;23.20;1.00
15105;DHT22;7653;48.994;9.212;2023-06-14T10:10:05;23.30;2.70
15105;DHT22;7653;48.994;9.212;2023-06-14T10:12:31;23.30;1.60
15105;DHT22;7653;48.994;9.212;2023-06-14T10:14:57;23.70;1.90
15105;DHT22;7653;48.994;9.212;2023-06-14T10:17:43;23.70;1.40
15105;DHT22;7653;48.994;9.212;2023-06-14T10:20:38;23.00;1.00
15105;DHT22;7653;48.994;9.212;2023-06-14T10:23:16;22.90;1.30
15105;DHT22;7653;48.994;9.212;2023-06-14T10:25:43;23.00;1.00
15105;DHT22;7653;48.994;9.212;2023-06-14T10:30:37;23.20;1.00
15105;DHT22;7653;48.994;9.212;2023-06-14T10:33:07;23.40;1.50
15105;DHT22;7653;48.994;9.212;2023-06-14T10:35:33;23.20;1.50
15105;DHT22;7653;48.994;9.212;2023-06-14T10:38:12;23.50;2.40
15105;DHT22;7653;48.994;9.212;2023-06-14T10:40:38;23.30;1.60
15105;DHT22;7653;48.994;9.212;2023-06-14T10:43:24;22.50;1.60
15105;DHT22;7653;48.994;9.212;2023-06-14T10:46:13;22.90;1.20
15105;DHT22;7653;48.994;9.212;2023-06-14T10:48:45;23.40;1.00
15105;DHT22;7653;48.994;9.212;2023-06-14T10:51:20;23.70;1.00
15105;DHT22;7653;48.994;9.212;2023-06-14T10:53:47;24.10;1.00
15105;DHT22;7653;48.994;9.212;2023-06-14T10:56:46;24.10;1.00
15105;DHT22;7653;48.994;9.212;2023-06-14T10:59:12;23.80;1.00
15105;DHT22;7653;48.994;9.212;2023-06-14T11:04:33;23.40;1.00
15105;DHT22;7653;48.994;9.212;2023-06-14T11:12:36;23.30;1.00
15105;DHT22;7653;48.994;9.212;2023-06-14T11:15:05;24.10;1.00
15105;DHT22;7653;48.994;9.212;2023-06-14T11:17:33;23.70;1.00
15105;DHT22;7653;48.994;9.212;2023-06-14T11:20:11;24.20;1.00
15105;DHT22;7653;48.994;9.212;2023-06-14T11:22:44;24.30;1.00
15105;DHT22;7653;48.994;9.212;2023-06-14T11:25:11;24.40;1.00
15105;DHT22;7653;48.994;9.212;2023-06-14T11:27:37;24.00;1.00
15105;DHT22;7653;48.994;9.212;2023-06-14T11:30:03;23.60;1.00
15105;DHT22;7653;48.994;9.212;2023-06-14T11:32:31;23.60;1.00
15105;DHT22;7653;48.994;9.212;2023-06-14T11:34:57;24.00;1.00
15105;DHT22;7653;48.994;9.212;2023-06-14T11:37:25;23.90;1.00
15105;DHT22;7653;48.994;9.212;2023-06-14T11:39:51;23.70;1.00
15105;DHT22;7653;48.994;9.212;2023-06-14T11:42:17;24.00;1.00
15105;DHT22;7653;48.994;9.212;2023-06-14T11:44:46;23.60;1.00
15105;DHT22;7653;48.994;9.212;2023-06-14T11:47:12;23.60;1.00
15105;DHT22;7653;48.994;9.212;2023-06-14T11:49:38;23.50;1.00
15105;DHT22;7653;48.994;9.212;2023-06-14T11:52:04;23.80;1.00
15105;DHT22;7653;48.994;9.212;2023-06-14T11:54:32;23.90;1.00
15105;DHT22;7653;48.994;9.212;2023-06-14T11:56:58;23.60;1.00
15105;DHT22;7653;48.994;9.212;2023-06-14T11:59:24;23.60;1.00
15105;DHT22;7653;48.994;9.212;2023-06-14T12:01:50;24.10;1.00
15105;DHT22;7653;48.994;9.212;2023-06-14T12:04:28;24.50;1.00
15105;DHT22;7653;48.994;9.212;2023-06-14T12:06:55;24.80;1.00
15105;DHT22;7653;48.994;9.212;2023-06-14T12:09:23;24.00;1.00
15105;DHT22;7653;48.994;9.212;2023-06-14T12:11:59;23.70;1.00
15105;DHT22;7653;48.994;9.212;2023-06-14T12:14:32;24.00;1.00
15105;DHT22;7653;48.994;9.212;2023-06-14T12:17:07;23.80;1.00
15105;DHT22;7653;48.994;9.212;2023-06-14T12:19:33;24.60;1.00
15105;DHT22;7653;48.994;9.212;2023-06-14T12:22:07;25.10;1.00
15105;DHT22;7653;48.994;9.212;2023-06-14T12:24:34;25.80;1.00
15105;DHT22;7653;48.994;9.212;2023-06-14T12:27:00;25.90;1.00
15105;DHT22;7653;48.994;9.212;2023-06-14T12:29:28;25.90;1.00
15105;DHT22;7653;48.994;9.212;2023-06-14T12:31:54;25.40;1.00
15105;DHT22;7653;48.994;9.212;2023-06-14T12:34:24;25.00;1.00
15105;DHT22;7653;48.994;9.212;2023-06-14T12:36:52;24.40;1.00
15105;DHT22;7653;48.994;9.212;2023-06-14T12:39:18;24.20;1.00
15105;DHT22;7653;48.994;9.212;2023-06-14T12:41:44;24.90;1.00
15105;DHT22;7653;48.994;9.212;2023-06-14T12:44:13;25.00;1.00
15105;DHT22;7653;48.994;9.212;2023-06-14T12:46:42;24.60;1.00
15105;DHT22;7653;48.994;9.212;2023-06-14T12:49:12;24.30;1.00
15105;DHT22;7653;48.994;9.212;2023-06-14T12:51:39;24.10;1.00
15105;DHT22;7653;48.994;9.212;2023-06-14T12:54:05;24.40;1.00
15105;DHT22;7653;48.994;9.212;2023-06-14T12:56:31;24.70;1.00
15105;DHT22;7653;48.994;9.212;2023-06-14T12:58:58;25.70;1.00
15105;DHT22;7653;48.994;9.212;2023-06-14T13:01:24;26.50;1.00
15105;DHT22;7653;48.994;9.212;2023-06-14T13:03:50;26.60;1.00
15105;DHT22;7653;48.994;9.212;2023-06-14T13:06:20;27.70;1.00
15105;DHT22;7653;48.994;9.212;2023-06-14T13:08:46;28.00;1.00
15105;DHT22;7653;48.994;9.212;2023-06-14T13:11:12;27.70;1.00
15105;DHT22;7653;48.994;9.212;2023-06-14T13:13:37;27.80;1.00
15105;DHT22;7653;48.994;9.212;2023-06-14T13:16:03;26.10;1.00
15105;DHT22;7653;48.994;9.212;2023-06-14T13:18:29;26.40;1.00
15105;DHT22;7653;48.994;9.212;2023-06-14T13:20:54;26.70;1.00
15105;DHT22;7653;48.994;9.212;2023-06-14T13:23:20;25.10;1.00
15105;DHT22;7653;48.994;9.212;2023-06-14T13:25:46;25.40;1.00
15105;DHT22;7653;48.994;9.212;2023-06-14T13:28:12;25.90;1.00
15105;DHT22;7653;48.994;9.212;2023-06-14T13:30:37;24.80;1.00
15105;DHT22;7653;48.994;9.212;2023-06-14T13:33:03;25.50;1.00
15105;DHT22;7653;48.994;9.212;2023-06-14T13:35:29;26.80;1.00
15105;DHT22;7653;48.994;9.212;2023-06-14T13:37:54;26.80;1.00
15105;DHT22;7653;48.994;9.212;2023-06-14T13:40:20;27.20;1.00
15105;DHT22;7653;48.994;9.212;2023-06-14T13:42:46;26.20;1.00
15105;DHT22;7653;48.994;9.212;2023-06-14T13:45:12;25.90;1.00
15105;DHT22;7653;48.994;9.212;2023-06-14T13:47:38;26.20;1.00
15105;DHT22;7653;48.994;9.212;2023-06-14T13:50:05;26.30;1.00
15105;DHT22;7653;48.994;9.212;2023-06-14T13:52:30;26.40;1.00
15105;DHT22;7653;48.994;9.212;2023-06-14T13:54:56;26.20;1.00
15105;DHT22;7653;48.994;9.212;2023-06-14T13:57:22;27.50;1.00
15105;DHT22;7653;48.994;9.212;2023-06-14T13:59:48;28.90;1.00
15105;DHT22;7653;48.994;9.212;2023-06-14T14:02:14;28.40;1.00
15105;DHT22;7653;48.994;9.212;2023-06-14T14:04:40;29.30;1.00
15105;DHT22;7653;48.994;9.212;2023-06-14T14:07:06;28.20;1.00
15105;DHT22;7653;48.994;9.212;2023-06-14T14:09:33;27.60;1.00
15105;DHT22;7653;48.994;9.212;2023-06-14T14:12:00;27.90;1.00
15105;DHT22;7653;48.994;9.212;2023-06-14T14:14:27;28.00;1.00
15105;DHT22;7653;48.994;9.212;2023-06-14T14:16:53;28.30;1.00
15105;DHT22;7653;48.994;9.212;2023-06-14T14:19:20;29.40;1.00
15105;DHT22;7653;48.994;9.212;2023-06-14T14:21:46;28.70;1.00
15105;DHT22;7653;48.994;9.212;2023-06-14T14:24:12;28.50;1.00
15105;DHT22;7653;48.994;9.212;2023-06-14T14:26:38;27.60;1.00
15105;DHT22;7653;48.994;9.212;2023-06-14T14:29:04;27.30;1.00
15105;DHT22;7653;48.994;9.212;2023-06-14T14:31:30;27.30;1.00
15105;DHT22;7653;48.994;9.212;2023-06-14T14:33:56;26.70;1.00
15105;DHT22;7653;48.994;9.212;2023-06-14T14:36:21;27.30;1.00
15105;DHT22;7653;48.994;9.212;2023-06-14T14:38:47;27.10;1.00
15105;DHT22;7653;48.994;9.212;2023-06-14T14:41:13;27.20;1.00
15105;DHT22;7653;48.994;9.212;2023-06-14T14:43:39;27.20;1.00
15105;DHT22;7653;48.994;9.212;2023-06-14T14:46:05;25.90;1.00
15105;DHT22;7653;48.994;9.212;2023-06-14T14:48:31;27.80;1.00
15105;DHT22;7653;48.994;9.212;2023-06-14T14:50:56;28.80;1.00
15105;DHT22;7653;48.994;9.212;2023-06-14T14:53:22;28.00;1.00
15105;DHT22;7653;48.994;9.212;2023-06-14T14:55:48;27.50;1.00
15105;DHT22;7653;48.994;9.212;2023-06-14T14:58:14;28.60;1.00
15105;DHT22;7653;48.994;9.212;2023-06-14T15:00:46;27.70;1.00
15105;DHT22;7653;48.994;9.212;2023-06-14T15:03:12;27.70;1.00
15105;DHT22;7653;48.994;9.212;2023-06-14T15:05:37;28.30;1.00
15105;DHT22;7653;48.994;9.212;2023-06-14T15:08:04;26.50;1.00
15105;DHT22;7653;48.994;9.212;2023-06-14T15:10:30;26.50;1.00
15105;DHT22;7653;48.994;9.212;2023-06-14T15:12:57;26.90;1.00
15105;DHT22;7653;48.994;9.212;2023-06-14T15:15:22;26.90;1.00
15105;DHT22;7653;48.994;9.212;2023-06-14T15:17:48;26.10;1.00
15105;DHT22;7653;48.994;9.212;2023-06-14T15:20:14;25.30;1.00
15105;DHT22;7653;48.994;9.212;2023-06-14T15:22:40;25.80;1.00
15105;DHT22;7653;48.994;9.212;2023-06-14T15:25:06;26.20;1.00
15105;DHT22;7653;48.994;9.212;2023-06-14T15:27:32;26.40;1.00
15105;DHT22;7653;48.994;9.212;2023-06-14T15:29:57;26.60;1.00
15105;DHT22;7653;48.994;9.212;2023-06-14T15:32:23;27.20;1.00
15105;DHT22;7653;48.994;9.212;2023-06-14T15:34:49;27.00;1.00
15105;DHT22;7653;48.994;9.212;2023-06-14T15:37:14;25.30;1.00
15105;DHT22;7653;48.994;9.212;2023-06-14T15:39:40;25.90;1.00
15105;DHT22;7653;48.994;9.212;2023-06-14T15:42:06;25.60;1.00
15105;DHT22;7653;48.994;9.212;2023-06-14T15:44:33;26.20;1.00
15105;DHT22;7653;48.994;9.212;2023-06-14T15:46:58;27.00;1.00
15105;DHT22;7653;48.994;9.212;2023-06-14T15:49:24;26.90;1.00
15105;DHT22;7653;48.994;9.212;2023-06-14T15:51:50;26.90;1.00
15105;DHT22;7653;48.994;9.212;2023-06-14T15:54:15;26.20;1.00
15105;DHT22;7653;48.994;9.212;2023-06-14T15:56:41;26.10;1.00
15105;DHT22;7653;48.994;9.212;2023-06-14T15:59:07;26.20;1.00
15105;DHT22;7653;48.994;9.212;2023-06-14T16:01:32;26.30;1.00
15105;DHT22;7653;48.994;9.212;2023-06-14T16:03:58;26.60;1.00
15105;DHT22;7653;48.994;9.212;2023-06-14T16:06:24;26.80;1.00
15105;DHT22;7653;48.994;9.212;2023-06-14T16:08:49;26.60;1.00
15105;DHT22;7653;48.994;9.212;2023-06-14T16:11:17;26.50;1.00